Time;durP1;ratioP1;P1;durP2;ratioP2;P2;SDS_P1;SDS_P2;PMS_P1;PMS_P2;Temp;Humidity;BMP_temperature;BMP_pressure;BME280_temperature;BME280_humidity;BME280_pressure;Samples;Min_cycle;Max_cycle;Signal;HPM_P1;HPM_P2
2022/03/18 00:03:45;;;;;;;6.57;3.15;;;10.20;76.10;;;;;;10489848;28;20031;-68
2022/03/18 00:08:46;;;;;;;7.65;3.25;;;10.20;76.10;;;;;;10479395;28;20040;-67
2022/03/18 00:13:47;;;;;;;8.63;3.28;;;10.20;76.20;;;;;;10492290;28;20021;-66
2022/03/18 00:18:48;;;;;;;6.75;3.25;;;10.10;76.20;;;;;;10488054;28;20390;-67
2022/03/18 00:23:49;;;;;;;7.90;3.53;;;10.10;76.10;;;;;;10484116;28;20020;-66
2022/03/18 00:28:49;;;;;;;7.32;3.35;;;10.10;76.20;;;;;;10486678;28;20054;-69
2022/03/18 00:33:50;;;;;;;6.18;2.90;;;10.10;76.20;;;;;;10482955;28;20024;-65
2022/03/18 00:38:51;;;;;;;7.82;3.00;;;10.00;76.20;;;;;;10491232;28;20443;-67
2022/03/18 00:43:53;;;;;;;7.45;3.50;;;10.00;76.80;;;;;;10485364;28;20029;-67
2022/03/18 00:54:14;;;;;;;5.18;3.20;;;10.00;76.20;;;;;;10485528;28;20032;-68
2022/03/18 00:59:15;;;;;;;5.85;2.97;;;9.90;76.20;;;;;;10486992;28;20036;-67
2022/03/18 01:04:16;;;;;;;7.95;3.47;;;9.90;76.20;;;;;;10491525;28;20383;-69
2022/03/18 01:09:18;;;;;;;7.50;3.25;;;9.90;76.20;;;;;;10486820;28;20039;-68
2022/03/18 01:14:19;;;;;;;7.03;3.78;;;9.90;76.20;;;;;;10490563;28;20039;-69
2022/03/18 01:19:20;;;;;;;7.60;3.22;;;9.90;76.20;;;;;;10488507;28;20518;-69
2022/03/18 01:24:21;;;;;;;7.55;3.65;;;9.80;76.20;;;;;;10492569;28;20044;-69
2022/03/18 01:29:21;;;;;;;7.32;3.08;;;9.80;76.20;;;;;;10486842;28;20506;-69
2022/03/18 01:34:22;;;;;;;4.95;2.78;;;9.80;76.20;;;;;;10489749;28;20103;-67
2022/03/18 01:39:23;;;;;;;5.97;2.97;;;9.70;76.10;;;;;;10487585;28;20032;-69
2022/03/18 01:44:24;;;;;;;6.93;3.50;;;9.70;76.80;;;;;;10489709;28;20031;-68
2022/03/18 01:49:24;;;;;;;6.20;3.20;;;9.70;76.20;;;;;;10496398;28;20044;-69
2022/03/18 01:59:46;;;;;;;6.40;2.97;;;9.60;76.20;;;;;;10486086;28;20391;-67
2022/03/18 02:04:47;;;;;;;4.93;2.95;;;9.60;76.20;;;;;;10487115;28;20125;-69
2022/03/18 02:09:48;;;;;;;4.78;3.15;;;9.60;76.30;;;;;;10461226;28;20029;-66
2022/03/18 02:14:48;;;;;;;6.63;3.25;;;9.50;76.20;;;;;;10489062;28;20479;-67
2022/03/18 02:19:49;;;;;;;4.95;2.90;;;9.50;76.20;;;;;;10485037;28;20017;-66
2022/03/18 02:24:55;;;;;;;8.13;3.15;;;9.50;76.20;;;;;;10483493;28;20040;-69
2022/03/18 02:29:55;;;;;;;6.05;3.45;;;9.50;76.20;;;;;;10479248;28;20044;-68
2022/03/18 02:34:56;;;;;;;7.63;2.85;;;9.40;76.20;;;;;;10471469;28;20128;-66
2022/03/18 02:39:58;;;;;;;5.97;3.35;;;9.40;76.20;;;;;;10486735;28;20033;-67
2022/03/18 02:45:00;;;;;;;8.75;3.58;;;9.60;76.40;;;;;;10485879;28;20050;-67
2022/03/18 02:50:01;;;;;;;7.05;3.42;;;9.40;76.30;;;;;;10476386;28;20212;-68
2022/03/18 02:55:02;;;;;;;5.43;3.50;;;9.40;76.30;;;;;;10486560;28;20522;-67
2022/03/18 03:00:06;;;;;;;6.50;3.30;;;9.30;76.30;;;;;;10480655;28;20044;-68
2022/03/18 03:10:31;;;;;;;9.20;3.95;;;9.30;76.30;;;;;;10484720;28;20394;-67
2022/03/18 03:15:32;;;;;;;6.63;3.40;;;9.30;76.30;;;;;;10473033;28;20499;-67
2022/03/18 03:20:33;;;;;;;6.18;2.90;;;9.20;76.20;;;;;;10482563;28;20411;-68
2022/03/18 03:25:34;;;;;;;9.30;3.38;;;9.20;76.20;;;;;;10479595;28;20040;-64
2022/03/18 03:30:35;;;;;;;6.32;3.92;;;9.20;76.30;;;;;;10481556;28;20067;-68
2022/03/18 03:35:36;;;;;;;5.35;3.53;;;9.20;76.30;;;;;;10498566;28;20539;-65
2022/03/18 03:40:38;;;;;;;7.55;3.45;;;9.10;76.20;;;;;;10497972;28;20029;-67
2022/03/18 03:45:39;;;;;;;6.45;3.45;;;9.10;76.20;;;;;;10492516;28;20072;-66
2022/03/18 03:50:41;;;;;;;6.40;3.63;;;9.10;76.20;;;;;;10492557;28;20529;-68
2022/03/18 03:55:43;;;;;;;6.50;3.47;;;9.10;76.20;;;;;;10490448;28;20317;-66
2022/03/18 04:00:45;;;;;;;6.55;3.70;;;9.10;76.20;;;;;;10492820;28;20052;-68
2022/03/18 04:05:45;;;;;;;5.40;3.28;;;9.00;76.10;;;;;;10488313;28;20048;-67
2022/03/18 04:10:46;;;;;;;6.22;3.40;;;9.10;76.20;;;;;;10495097;28;20452;-66
2022/03/18 04:15:48;;;;;;;7.22;3.60;;;9.30;76.40;;;;;;10486061;28;20051;-65
2022/03/18 04:20:48;;;;;;;7.18;3.80;;;9.00;76.20;;;;;;10493509;28;20024;-67
2022/03/18 04:25:51;;;;;;;6.03;3.53;;;9.00;76.30;;;;;;10493934;28;20032;-66
2022/03/18 04:30:51;;;;;;;7.47;3.63;;;8.90;76.20;;;;;;10483473;28;20071;-63
2022/03/18 04:35:52;;;;;;;9.55;4.97;;;8.90;76.30;;;;;;10495685;28;20047;-69
2022/03/18 04:40:53;;;;;;;7.07;3.40;;;8.90;76.30;;;;;;10496769;28;20024;-68
2022/03/18 04:45:54;;;;;;;6.60;3.45;;;8.90;76.30;;;;;;10490004;28;20032;-65
2022/03/18 04:50:55;;;;;;;5.80;3.35;;;8.90;76.20;;;;;;10481214;28;20138;-64
2022/03/18 04:55:55;;;;;;;5.88;3.33;;;8.80;76.20;;;;;;10489402;28;20039;-66
2022/03/18 05:00:56;;;;;;;8.02;3.90;;;8.90;76.30;;;;;;10469488;28;20553;-67
2022/03/18 05:05:57;;;;;;;9.77;4.07;;;8.80;76.20;;;;;;10478826;28;20045;-67
2022/03/18 05:10:57;;;;;;;8.32;3.70;;;8.80;76.20;;;;;;10489633;28;20039;-67
2022/03/18 05:15:58;;;;;;;7.50;3.75;;;8.80;76.20;;;;;;10487896;28;20024;-66
2022/03/18 05:20:59;;;;;;;8.77;3.83;;;8.70;76.20;;;;;;10481329;28;20040;-68
2022/03/18 05:26:01;;;;;;;7.38;4.10;;;8.70;76.20;;;;;;10481628;28;20032;-66
2022/03/18 05:31:02;;;;;;;6.15;3.67;;;8.70;76.20;;;;;;10487670;28;20368;-67
2022/03/18 05:36:03;;;;;;;6.28;4.00;;;8.70;76.20;;;;;;10486987;28;20032;-67
2022/03/18 05:41:04;;;;;;;5.75;3.53;;;8.70;76.20;;;;;;10488389;28;20025;-68
2022/03/18 05:46:04;;;;;;;7.82;4.00;;;8.70;76.20;;;;;;10488278;28;20032;-67
2022/03/18 05:51:05;;;;;;;7.25;3.85;;;8.60;76.30;;;;;;10474671;28;20072;-65
2022/03/18 06:01:26;;;;;;;6.75;4.13;;;8.60;76.30;;;;;;10482995;28;20035;-67
2022/03/18 06:06:28;;;;;;;7.35;3.80;;;8.60;76.20;;;;;;10478261;28;20091;-68
2022/03/18 06:16:51;;;;;;;9.35;3.70;;;8.60;76.20;;;;;;10482117;28;20067;-65
2022/03/18 06:21:51;;;;;;;8.68;4.32;;;8.60;76.20;;;;;;10476602;28;20064;-67
2022/03/18 06:26:53;;;;;;;9.38;4.72;;;8.60;76.20;;;;;;10481262;28;20077;-65
2022/03/18 06:31:54;;;;;;;9.45;4.10;;;8.50;76.20;;;;;;10475094;28;20028;-67
2022/03/18 06:37:02;;;;;;;7.72;4.22;;;8.60;76.30;;;;;;10481260;28;20017;-68
2022/03/18 06:42:04;;;;;;;8.55;4.35;;;8.70;76.40;;;;;;10486264;28;20479;-67
2022/03/18 06:47:05;;;;;;;6.30;3.78;;;8.50;76.30;;;;;;10485932;28;20040;-68
2022/03/18 06:52:06;;;;;;;8.75;4.47;;;8.60;76.30;;;;;;10463609;28;20041;-67
2022/03/18 06:57:07;;;;;;;6.57;4.28;;;8.60;77.00;;;;;;10486376;28;20127;-69
2022/03/18 07:02:07;;;;;;;7.28;4.30;;;8.60;76.30;;;;;;10481933;28;20429;-68
2022/03/18 07:07:08;;;;;;;9.65;4.50;;;8.60;76.30;;;;;;10485348;28;20047;-67
2022/03/18 07:12:09;;;;;;;8.80;4.68;;;8.60;76.30;;;;;;10485470;28;20430;-68
2022/03/18 07:22:29;;;;;;;10.13;5.32;;;8.60;76.40;;;;;;10475153;28;20094;-67
2022/03/18 07:27:30;;;;;;;8.98;5.05;;;8.70;76.40;;;;;;10482081;28;20517;-68
2022/03/18 07:32:30;;;;;;;12.85;5.00;;;8.70;76.40;;;;;;10479399;28;20102;-66
2022/03/18 07:37:34;;;;;;;10.27;5.45;;;8.80;76.30;;;;;;10484722;28;20060;-68
2022/03/18 07:42:46;;;;;;;9.68;4.93;;;8.90;76.30;;;;;;10482612;28;20036;-68
2022/03/18 07:47:51;;;;;;;7.57;4.75;;;9.00;76.30;;;;;;10484483;28;20041;-68
2022/03/18 07:52:54;;;;;;;11.30;5.30;;;9.20;76.10;;;;;;10480820;28;20036;-68
2022/03/18 07:57:56;;;;;;;10.45;5.32;;;9.30;75.90;;;;;;10480900;28;20033;-68
2022/03/18 08:02:57;;;;;;;9.90;5.28;;;9.50;76.20;;;;;;10451224;28;20033;-67
2022/03/18 08:07:58;;;;;;;9.40;5.35;;;9.60;75.70;;;;;;10448934;28;20488;-69
2022/03/18 08:12:59;;;;;;;13.38;6.70;;;9.70;75.60;;;;;;10463979;28;20033;-72
2022/03/18 08:18:00;;;;;;;12.35;5.68;;;9.80;75.60;;;;;;10473179;28;20399;-71
2022/03/18 08:23:01;;;;;;;10.80;5.85;;;9.90;75.60;;;;;;10481073;28;20014;-71
2022/03/18 08:28:04;;;;;;;11.82;6.03;;;9.90;75.60;;;;;;10488707;28;20040;-74
2022/03/18 08:33:05;;;;;;;12.57;6.72;;;10.00;75.60;;;;;;10489123;28;20483;-70
2022/03/18 08:38:08;;;;;;;15.13;6.63;;;10.00;75.70;;;;;;10470062;28;20166;-69
2022/03/18 08:43:09;;;;;;;12.55;6.40;;;10.00;75.70;;;;;;10457193;28;20033;-69
2022/03/18 08:48:10;;;;;;;9.15;5.70;;;10.20;75.90;;;;;;10460548;28;20029;-69
2022/03/18 08:53:10;;;;;;;11.82;6.18;;;10.10;75.90;;;;;;10457240;28;20517;-69
2022/03/18 08:58:12;;;;;;;14.82;6.32;;;10.10;75.90;;;;;;10457071;28;20044;-70
2022/03/18 09:03:12;;;;;;;13.15;6.43;;;10.10;76.00;;;;;;10457468;28;20025;-68
2022/03/18 09:08:14;;;;;;;11.93;6.13;;;10.20;76.10;;;;;;10455634;28;20045;-69
2022/03/18 09:13:15;;;;;;;10.73;5.28;;;10.20;76.20;;;;;;10457385;28;20087;-68
2022/03/18 09:18:18;;;;;;;10.88;5.32;;;10.20;76.20;;;;;;10453602;28;20033;-69
2022/03/18 09:23:18;;;;;;;12.13;6.32;;;10.20;76.30;;;;;;10455774;28;20025;-66
2022/03/18 09:28:19;;;;;;;13.95;5.70;;;10.20;76.40;;;;;;10461093;28;20041;-65
2022/03/18 09:33:20;;;;;;;11.82;6.13;;;10.30;76.50;;;;;;10437413;28;20040;-65
2022/03/18 09:38:20;;;;;;;12.57;5.75;;;10.30;76.50;;;;;;10482457;28;20292;-66
2022/03/18 09:43:21;;;;;;;11.55;5.65;;;10.40;76.60;;;;;;10485617;28;20024;-67
2022/03/18 09:48:23;;;;;;;11.15;5.45;;;10.40;76.70;;;;;;10476680;28;20135;-67
2022/03/18 09:53:24;;;;;;;11.35;5.85;;;10.50;76.80;;;;;;10480065;28;20031;-70
2022/03/18 09:58:25;;;;;;;10.73;5.10;;;10.60;77.00;;;;;;10471787;28;20459;-69
2022/03/18 10:03:44;;;;;;;8.68;5.30;;;10.70;77.10;;;;;;10477677;28;20033;-67
2022/03/18 10:08:53;;;;;;;15.52;5.50;;;10.70;77.60;;;;;;10477116;28;20090;-69
2022/03/18 10:13:54;;;;;;;;;;;10.80;77.30;;;;;;10478937;28;20039;-69
2022/03/18 10:18:54;;;;;;;10.82;4.97;;;10.90;78.60;;;;;;10480477;28;20370;-66
2022/03/18 10:24:10;;;;;;;12.00;5.53;;;11.00;77.20;;;;;;10478905;28;20541;-69
2022/03/18 10:29:13;;;;;;;12.27;5.60;;;11.10;77.50;;;;;;10460618;28;20037;-65
2022/03/18 10:39:37;;;;;;;11.55;5.53;;;11.20;77.30;;;;;;10457096;28;20021;-63
2022/03/18 10:44:46;;;;;;;11.40;6.43;;;11.30;77.40;;;;;;10466888;28;20499;-66
2022/03/18 10:49:47;;;;;;;11.07;5.15;;;11.40;79.10;;;;;;10484465;28;20434;-63
2022/03/18 10:54:48;;;;;;;9.40;5.43;;;11.60;78.40;;;;;;10478972;28;20039;-64
2022/03/18 10:59:49;;;;;;;9.57;5.22;;;11.70;78.20;;;;;;10480276;28;20046;-67
2022/03/18 11:04:49;;;;;;;10.30;5.75;;;11.70;78.30;;;;;;10480711;28;20073;-62
2022/03/18 11:15:11;;;;;;;11.88;5.53;;;11.90;78.50;;;;;;10454041;28;20058;-65
2022/03/18 11:20:13;;;;;;;12.85;5.75;;;12.00;78.50;;;;;;10475228;28;20028;-63
2022/03/18 11:25:15;;;;;;;9.98;4.70;;;12.10;78.50;;;;;;10481849;28;20041;-66
2022/03/18 11:30:25;;;;;;;8.70;4.75;;;12.10;78.50;;;;;;10473100;28;20024;-63
2022/03/18 11:35:26;;;;;;;12.73;5.95;;;12.10;78.70;;;;;;10471989;28;20541;-63
2022/03/18 11:40:30;;;;;;;10.85;4.90;;;12.20;78.50;;;;;;10478925;28;20071;-65
2022/03/18 11:45:37;;;;;;;10.18;4.63;;;12.30;78.50;;;;;;10480685;28;20028;-66
2022/03/18 11:50:38;;;;;;;10.02;4.85;;;12.40;78.60;;;;;;10477767;28;20063;-65
2022/03/18 11:55:39;;;;;;;11.18;4.97;;;12.40;78.50;;;;;;10476468;28;20390;-61
2022/03/18 12:00:43;;;;;;;9.63;4.80;;;12.50;78.60;;;;;;10477435;28;20027;-66
2022/03/18 12:05:58;;;;;;;14.05;6.13;;;12.60;78.60;;;;;;10488871;28;20119;-67
2022/03/18 12:11:00;;;;;;;11.18;4.65;;;12.70;78.90;;;;;;10491226;28;20036;-63
2022/03/18 12:16:01;;;;;;;11.75;5.00;;;12.80;78.60;;;;;;10490566;28;20037;-65
2022/03/18 12:21:01;;;;;;;8.07;4.18;;;12.90;78.70;;;;;;10490465;28;20258;-67
2022/03/18 12:26:05;;;;;;;9.18;4.32;;;12.90;78.60;;;;;;10488498;28;20043;-66
2022/03/18 12:31:16;;;;;;;10.48;4.40;;;13.00;78.60;;;;;;10465751;28;20552;-64
2022/03/18 12:36:23;;;;;;;7.97;4.32;;;13.10;78.70;;;;;;10490179;28;20060;-66
2022/03/18 12:41:24;;;;;;;9.18;3.95;;;13.20;78.50;;;;;;10466918;28;20123;-66
2022/03/18 12:46:27;;;;;;;9.50;3.63;;;13.20;78.90;;;;;;10484949;28;20487;-66
2022/03/18 12:51:28;;;;;;;8.23;3.85;;;13.20;78.90;;;;;;10488608;28;20049;-66
2022/03/18 12:56:30;;;;;;;10.93;3.95;;;13.20;78.30;;;;;;10476716;28;20443;-66
2022/03/18 13:01:31;;;;;;;6.50;3.00;;;13.30;78.20;;;;;;10472876;28;20118;-66
2022/03/18 13:06:32;;;;;;;6.93;3.05;;;13.30;78.20;;;;;;10476803;28;20043;-68
2022/03/18 13:11:35;;;;;;;7.07;3.20;;;13.30;78.40;;;;;;10485725;28;20028;-67
2022/03/18 13:16:41;;;;;;;6.95;3.15;;;13.40;78.40;;;;;;10467687;28;20031;-66
2022/03/18 13:21:47;;;;;;;5.90;3.05;;;13.40;78.20;;;;;;10485025;28;20504;-67
2022/03/18 13:26:48;;;;;;;5.40;2.60;;;13.50;78.20;;;;;;10473047;28;20036;-64
2022/03/18 13:37:16;;;;;;;6.13;2.42;;;13.70;78.20;;;;;;10477440;28;20101;-63
2022/03/18 13:42:25;;;;;;;9.18;3.85;;;13.50;78.30;;;;;;10459409;28;20060;-62
2022/03/18 13:47:27;;;;;;;8.88;4.50;;;13.50;77.90;;;;;;10463597;28;20075;-61
2022/03/18 13:52:33;;;;;;;8.95;4.20;;;13.70;77.60;;;;;;10453191;28;20051;-62
2022/03/18 13:57:45;;;;;;;12.77;3.88;;;14.10;76.60;;;;;;10439312;28;20040;-62
2022/03/18 14:02:46;;;;;;;6.93;3.00;;;14.70;74.30;;;;;;10464813;28;20033;-63
2022/03/18 14:07:49;;;;;;;7.07;3.05;;;14.80;74.00;;;;;;10468664;28;20040;-63
2022/03/18 14:12:59;;;;;;;10.15;3.70;;;14.50;73.60;;;;;;10464370;28;20051;-63
2022/03/18 14:18:09;;;;;;;6.80;2.65;;;14.30;73.60;;;;;;10451781;28;20036;-63
2022/03/18 14:23:19;;;;;;;9.63;3.00;;;14.60;73.60;;;;;;10469049;28;20043;-62
2022/03/18 14:28:25;;;;;;;8.38;3.30;;;15.10;72.00;;;;;;10461600;28;20045;-62
2022/03/18 14:33:33;;;;;;;8.73;2.80;;;15.30;71.70;;;;;;10461176;28;20036;-63
2022/03/18 14:38:34;;;;;;;10.07;3.38;;;15.20;71.50;;;;;;10462481;28;20024;-65
2022/03/18 14:43:34;;;;;;;8.05;3.05;;;15.30;71.60;;;;;;10461141;28;20032;-62
2022/03/18 14:48:35;;;;;;;15.02;5.10;;;15.60;71.00;;;;;;10470715;28;20515;-62
2022/03/18 14:53:36;;;;;;;14.15;3.88;;;15.40;70.80;;;;;;10463969;28;20556;-64
2022/03/18 14:58:38;;;;;;;6.97;3.28;;;15.00;71.10;;;;;;10469427;28;20037;-63
2022/03/18 15:03:39;;;;;;;7.22;2.50;;;15.10;71.50;;;;;;10467132;28;20107;-64
2022/03/18 15:08:39;;;;;;;7.22;2.67;;;15.30;71.10;;;;;;10467332;28;20032;-65
2022/03/18 15:13:40;;;;;;;10.00;4.03;;;15.00;71.10;;;;;;10480919;28;20199;-66
2022/03/18 15:18:41;;;;;;;9.40;2.70;;;15.30;71.60;;;;;;10482882;28;20085;-65
2022/03/18 15:23:42;;;;;;;5.90;2.30;;;15.20;72.20;;;;;;10457687;28;20020;-64
2022/03/18 15:28:45;;;;;;;5.47;2.10;;;15.10;72.60;;;;;;10479816;28;20131;-65
2022/03/18 15:33:46;;;;;;;6.18;2.55;;;15.10;73.10;;;;;;10481267;28;20039;-64
2022/03/18 15:38:46;;;;;;;5.90;2.25;;;15.00;73.60;;;;;;10483123;28;20389;-64
2022/03/18 15:43:48;;;;;;;7.10;2.28;;;14.90;74.00;;;;;;10480009;28;20390;-63
2022/03/18 15:48:49;;;;;;;8.88;3.20;;;14.80;74.40;;;;;;10473494;28;20060;-67
2022/03/18 15:53:50;;;;;;;7.32;3.05;;;14.70;73.70;;;;;;10450988;28;20495;-67
2022/03/18 15:58:51;;;;;;;9.13;3.50;;;14.40;74.00;;;;;;10454399;28;20024;-65
2022/03/18 16:03:52;;;;;;;6.95;3.33;;;14.30;74.20;;;;;;10459375;28;20040;-65
2022/03/18 16:08:56;;;;;;;9.85;2.75;;;14.20;74.00;;;;;;10471252;28;20576;-64
2022/03/18 16:13:56;;;;;;;7.55;2.25;;;14.20;73.30;;;;;;10476536;28;20021;-66
2022/03/18 16:18:57;;;;;;;8.02;2.53;;;14.20;72.80;;;;;;10468053;28;20545;-64
2022/03/18 16:24:02;;;;;;;14.68;3.47;;;14.20;72.80;;;;;;10468953;28;20436;-65
2022/03/18 16:29:03;;;;;;;6.65;2.38;;;13.90;73.20;;;;;;10457759;28;20532;-67
2022/03/18 16:34:04;;;;;;;8.52;2.50;;;13.80;73.70;;;;;;10476974;28;20032;-65
2022/03/18 16:39:04;;;;;;;4.68;1.90;;;13.80;74.10;;;;;;10485990;28;20501;-68
2022/03/18 16:44:07;;;;;;;4.47;2.13;;;13.90;74.50;;;;;;10485173;28;20396;-69
2022/03/18 16:49:23;;;;;;;8.68;2.10;;;13.90;74.70;;;;;;10463463;28;20111;-70
2022/03/18 16:54:26;;;;;;;3.22;1.95;;;14.00;75.00;;;;;;10482866;28;20025;-70
2022/03/18 16:59:26;;;;;;;6.63;2.85;;;14.00;75.30;;;;;;10478478;28;20033;-72
2022/03/18 17:04:27;;;;;;;6.70;1.80;;;14.00;75.50;;;;;;10460230;28;20024;-70
2022/03/18 17:09:28;;;;;;;7.00;2.03;;;14.10;75.80;;;;;;10472986;28;20043;-69
2022/03/18 17:14:29;;;;;;;6.82;1.70;;;14.00;76.00;;;;;;10478070;28;20456;-68
2022/03/18 17:19:30;;;;;;;4.00;2.10;;;14.00;76.10;;;;;;10487190;28;20036;-67
2022/03/18 17:24:31;;;;;;;5.70;1.83;;;14.00;76.50;;;;;;10481998;28;20020;-67
2022/03/18 17:29:32;;;;;;;6.25;1.45;;;14.00;76.90;;;;;;10481367;28;20025;-70
2022/03/18 17:34:33;;;;;;;5.57;1.88;;;13.90;77.10;;;;;;10474287;28;20051;-71
2022/03/18 17:39:35;;;;;;;3.03;1.45;;;13.90;77.50;;;;;;10486666;28;20035;-70
2022/03/18 17:44:35;;;;;;;3.50;1.63;;;13.80;77.60;;;;;;10481828;28;20099;-70
2022/03/18 17:49:37;;;;;;;5.85;1.65;;;13.80;77.70;;;;;;10474537;28;20052;-71
2022/03/18 17:54:38;;;;;;;4.97;1.70;;;13.80;77.90;;;;;;10442137;28;20035;-70
2022/03/18 17:59:41;;;;;;;6.78;1.70;;;13.70;78.30;;;;;;10455283;28;20021;-68
2022/03/18 18:04:43;;;;;;;4.28;1.63;;;13.70;78.40;;;;;;10453875;28;20480;-71
2022/03/18 18:09:45;;;;;;;5.50;1.42;;;13.60;78.50;;;;;;10441676;28;20048;-66
2022/03/18 18:14:46;;;;;;;5.25;1.15;;;13.60;78.70;;;;;;10471473;28;20067;-67
2022/03/18 18:25:07;;;;;;;4.32;1.38;;;13.60;78.80;;;;;;10465071;28;20028;-69
2022/03/18 18:30:09;;;;;;;3.92;1.88;;;13.50;78.80;;;;;;10477059;28;20029;-69
2022/03/18 18:35:10;;;;;;;4.22;1.30;;;13.40;78.80;;;;;;10475763;28;20030;-64
2022/03/18 18:40:12;;;;;;;3.42;1.30;;;13.50;78.90;;;;;;10479586;28;20032;-62
2022/03/18 18:45:13;;;;;;;4.95;1.48;;;13.40;79.00;;;;;;10450257;28;20049;-63
2022/03/18 18:50:14;;;;;;;3.47;1.10;;;13.40;79.20;;;;;;10454934;28;20055;-63
2022/03/18 18:55:20;;;;;;;4.68;1.65;;;13.30;79.20;;;;;;10457756;28;20153;-62
2022/03/18 19:00:21;;;;;;;4.32;1.30;;;13.30;79.30;;;;;;10457530;28;20094;-65
2022/03/18 19:05:21;;;;;;;6.07;2.00;;;13.30;79.50;;;;;;10461162;28;20127;-65
2022/03/18 19:10:22;;;;;;;5.18;1.55;;;13.20;79.50;;;;;;10457095;28;20036;-65
2022/03/18 19:15:23;;;;;;;3.40;1.80;;;13.20;79.60;;;;;;10476383;28;20131;-63
2022/03/18 19:20:24;;;;;;;8.70;1.60;;;13.20;79.70;;;;;;10470726;28;20051;-63
2022/03/18 19:25:25;;;;;;;3.97;1.45;;;13.10;79.70;;;;;;10476497;28;20047;-65
2022/03/18 19:30:25;;;;;;;4.13;1.40;;;13.10;79.80;;;;;;10477641;28;20032;-64
2022/03/18 19:35:26;;;;;;;6.22;1.40;;;13.10;79.90;;;;;;10476887;28;20032;-66
2022/03/18 19:40:27;;;;;;;6.40;1.60;;;13.00;79.90;;;;;;10472027;28;20374;-64
2022/03/18 19:45:28;;;;;;;4.32;1.67;;;13.00;80.00;;;;;;10477455;28;20090;-66
2022/03/18 19:50:35;;;;;;;6.60;1.83;;;13.00;80.10;;;;;;10455645;28;20049;-68
2022/03/18 20:01:07;;;;;;;9.77;2.00;;;12.90;80.20;;;;;;10480308;28;20035;-68
2022/03/18 20:06:08;;;;;;;3.65;1.58;;;12.90;80.30;;;;;;10479116;28;20033;-67
2022/03/18 20:11:09;;;;;;;11.13;2.15;;;12.80;80.30;;;;;;10478752;28;20029;-68
2022/03/18 20:16:09;;;;;;;5.75;1.70;;;12.80;80.40;;;;;;10483470;28;20090;-66
2022/03/18 20:21:10;;;;;;;9.07;2.08;;;12.80;80.50;;;;;;10486407;28;20035;-64
2022/03/18 20:26:12;;;;;;;7.10;1.60;;;12.70;80.50;;;;;;10484988;28;20040;-65
2022/03/18 20:31:13;;;;;;;6.53;2.08;;;12.70;80.60;;;;;;10476710;28;20534;-66
2022/03/18 20:36:13;;;;;;;8.93;1.80;;;12.70;80.80;;;;;;10477896;28;20082;-65
2022/03/18 20:41:15;;;;;;;5.82;2.40;;;12.60;80.90;;;;;;10460822;28;20080;-66
2022/03/18 20:46:15;;;;;;;5.00;1.85;;;12.60;80.90;;;;;;10484056;28;20037;-65
2022/03/18 20:51:16;;;;;;;6.72;2.08;;;12.90;81.20;;;;;;10484881;28;20052;-64
2022/03/18 20:56:17;;;;;;;7.68;2.20;;;12.50;81.00;;;;;;10484310;28;20465;-64
2022/03/18 21:01:18;;;;;;;6.28;2.60;;;12.50;81.10;;;;;;10482191;28;20032;-63
2022/03/18 21:06:19;;;;;;;6.57;2.45;;;12.50;81.20;;;;;;10479291;28;20041;-66
2022/03/18 21:11:20;;;;;;;6.25;2.05;;;12.40;81.20;;;;;;10465575;28;20032;-69
2022/03/18 21:16:25;;;;;;;9.45;2.65;;;12.40;81.30;;;;;;10482145;28;20386;-69
2022/03/18 21:21:26;;;;;;;8.93;2.38;;;12.40;81.40;;;;;;10478601;28;20031;-67
2022/03/18 21:31:46;;;;;;;5.85;2.30;;;12.30;81.50;;;;;;10484682;28;20032;-69
2022/03/18 21:36:47;;;;;;;5.00;1.90;;;12.30;81.70;;;;;;10481199;28;20028;-68
2022/03/18 21:41:48;;;;;;;4.65;1.95;;;12.30;81.70;;;;;;10477543;28;20069;-66
2022/03/18 21:46:49;;;;;;;6.70;2.35;;;12.90;82.80;;;;;;10481808;28;20036;-67
2022/03/18 21:51:50;;;;;;;4.93;2.00;;;12.20;81.90;;;;;;10462221;28;20569;-68
2022/03/18 21:56:51;;;;;;;5.40;2.40;;;12.20;81.90;;;;;;10480952;28;20115;-69
2022/03/18 22:01:51;;;;;;;4.30;2.28;;;12.10;82.00;;;;;;10479495;28;20045;-65
2022/03/18 22:06:53;;;;;;;7.30;1.83;;;12.10;82.00;;;;;;10471773;28;20450;-65
2022/03/18 22:11:54;;;;;;;9.95;2.55;;;12.20;82.10;;;;;;10457431;28;20032;-65
2022/03/18 22:16:56;;;;;;;8.68;2.22;;;12.00;82.00;;;;;;10453439;28;20024;-66
2022/03/18 22:22:00;;;;;;;10.57;2.65;;;12.00;82.00;;;;;;10466005;28;20021;-67
2022/03/18 22:27:00;;;;;;;6.20;2.00;;;12.00;82.00;;;;;;10475234;28;20353;-66
2022/03/18 22:32:01;;;;;;;5.05;2.00;;;11.90;81.90;;;;;;10479917;28;20065;-68
2022/03/18 22:37:02;;;;;;;9.25;2.63;;;11.90;82.00;;;;;;10471107;28;20044;-67
2022/03/18 22:42:03;;;;;;;6.43;2.00;;;11.90;82.00;;;;;;10465583;28;20028;-69
2022/03/18 22:47:04;;;;;;;10.95;2.55;;;11.90;82.00;;;;;;10452370;28;20037;-67
2022/03/18 22:52:06;;;;;;;10.27;2.70;;;11.80;81.90;;;;;;10453146;28;20057;-63
2022/03/18 22:57:07;;;;;;;5.95;2.10;;;11.80;81.90;;;;;;10453710;28;20033;-69
2022/03/18 23:02:08;;;;;;;6.93;2.08;;;11.80;81.90;;;;;;10476390;28;20059;-66
2022/03/18 23:07:09;;;;;;;11.10;2.25;;;11.70;81.80;;;;;;10484464;28;20044;-66
2022/03/18 23:12:09;;;;;;;6.10;2.03;;;11.70;81.90;;;;;;10484649;28;20408;-68
2022/03/18 23:17:12;;;;;;;9.43;2.47;;;11.70;81.90;;;;;;10484061;28;20039;-64
2022/03/18 23:22:13;;;;;;;9.32;2.50;;;11.60;81.80;;;;;;10485756;28;20082;-66
2022/03/18 23:27:15;;;;;;;8.30;2.28;;;11.60;81.80;;;;;;10483516;28;20106;-67
2022/03/18 23:32:21;;;;;;;5.95;2.35;;;11.60;81.80;;;;;;10480072;28;20025;-69
2022/03/18 23:37:22;;;;;;;12.05;2.40;;;11.60;81.80;;;;;;10484949;28;20056;-66
2022/03/18 23:42:23;;;;;;;5.60;2.22;;;11.50;81.70;;;;;;10484871;28;20522;-64
2022/03/18 23:47:24;;;;;;;5.85;2.22;;;11.50;81.70;;;;;;10472057;28;20040;-67
2022/03/18 23:52:24;;;;;;;12.93;2.35;;;11.50;81.60;;;;;;10479633;28;20076;-68
2022/03/18 23:57:25;;;;;;;7.88;2.08;;;11.50;81.60;;;;;;10493606;28;20196;-67
